createdAt,value
2023-04-10T00:00:25.381Z,7.36
2023-04-10T00:02:53.545Z,7.40
2023-04-10T00:05:21.652Z,7.42
2023-04-10T00:07:49.497Z,7.44
2023-04-10T00:10:17.498Z,7.34
2023-04-10T00:12:46.825Z,7.34
2023-04-10T00:15:14.690Z,7.28
2023-04-10T00:17:42.583Z,7.29
2023-04-10T00:20:11.305Z,7.30
2023-04-10T00:22:39.272Z,7.37
2023-04-10T00:25:07.972Z,7.43
2023-04-10T00:27:35.896Z,7.35
2023-04-10T00:30:05.805Z,7.28
2023-04-10T00:32:33.626Z,7.23
2023-04-10T00:35:01.635Z,7.22
2023-04-10T00:37:29.500Z,7.16
2023-04-10T00:39:57.436Z,7.25
2023-04-10T00:42:25.380Z,7.17
2023-04-10T00:44:53.286Z,7.24
2023-04-10T00:47:22.742Z,7.22
2023-04-10T00:49:50.847Z,7.32
2023-04-10T00:52:18.987Z,7.25
2023-04-10T00:54:46.924Z,7.31
2023-04-10T00:57:14.863Z,7.38
2023-04-10T00:59:42.840Z,7.36
2023-04-10T01:02:13.034Z,7.38
2023-04-10T01:04:43.303Z,7.36
2023-04-10T01:07:22.962Z,7.40
2023-04-10T01:09:58.300Z,7.41
2023-04-10T01:12:41.969Z,7.43
2023-04-10T01:15:13.999Z,7.46
2023-04-10T01:17:47.010Z,7.42
2023-04-10T01:20:23.125Z,7.48
2023-04-10T01:23:11.135Z,7.51
2023-04-10T01:25:42.349Z,7.46
2023-04-10T01:28:25.961Z,7.41
2023-04-10T01:30:59.172Z,7.45
2023-04-10T01:33:33.008Z,7.41
2023-04-10T01:36:04.234Z,7.41
2023-04-10T01:38:35.295Z,7.30
2023-04-10T01:41:04.738Z,7.40
2023-04-10T01:43:33.861Z,7.33
2023-04-10T01:46:04.388Z,7.39
2023-04-10T01:48:32.434Z,7.38
2023-04-10T01:51:01.639Z,7.45
2023-04-10T01:53:30.700Z,7.44
2023-04-10T01:55:59.340Z,7.38
2023-04-10T01:58:27.727Z,7.42
2023-04-10T02:00:55.640Z,7.42
2023-04-10T02:03:25.094Z,7.44
2023-04-10T02:06:03.580Z,7.41
2023-04-10T02:08:36.192Z,7.50
2023-04-10T02:11:11.606Z,7.45
2023-04-10T02:13:41.950Z,7.46
2023-04-10T02:16:10.939Z,7.42
2023-04-10T02:18:42.389Z,7.42
2023-04-10T02:21:10.696Z,7.46
2023-04-10T02:23:38.721Z,7.44
2023-04-10T02:26:10.730Z,7.39
2023-04-10T02:28:39.316Z,7.39
2023-04-10T02:31:07.733Z,7.37
2023-04-10T02:33:35.796Z,7.41
2023-04-10T02:36:05.598Z,7.47
2023-04-10T02:38:33.440Z,7.40
2023-04-10T02:41:01.327Z,7.37
2023-04-10T02:43:29.746Z,7.32
2023-04-10T02:45:57.657Z,7.24
2023-04-10T02:48:25.558Z,7.19
2023-04-10T02:50:57.818Z,7.15
2023-04-10T02:53:27.156Z,7.07
2023-04-10T02:55:55.643Z,7.00
2023-04-10T02:58:23.586Z,7.00
2023-04-10T03:00:51.882Z,6.87
2023-04-10T03:03:20.551Z,6.85
2023-04-10T03:05:49.542Z,6.91
2023-04-10T03:08:17.925Z,6.89
2023-04-10T03:10:48.626Z,6.84
2023-04-10T03:13:16.949Z,6.77
2023-04-10T03:15:44.874Z,6.75
2023-04-10T03:18:13.932Z,6.72
2023-04-10T03:20:43.164Z,6.63
2023-04-10T03:23:13.037Z,6.53
2023-04-10T03:25:41.229Z,6.50
2023-04-10T03:28:10.750Z,6.46
2023-04-10T03:30:38.909Z,6.44
2023-04-10T03:33:06.803Z,6.40
2023-04-10T03:35:34.715Z,6.32
2023-04-10T03:38:03.059Z,6.19
2023-04-10T03:40:31.330Z,6.23
2023-04-10T03:42:59.236Z,6.19
2023-04-10T03:45:28.602Z,6.15
2023-04-10T03:47:56.546Z,5.99
2023-04-10T03:50:24.499Z,6.06
2023-04-10T03:52:52.622Z,5.97
2023-04-10T03:55:21.047Z,6.02
2023-04-10T03:57:49.517Z,5.92
2023-04-10T04:00:18.295Z,5.98
2023-04-10T04:02:47.704Z,5.96
2023-04-10T04:05:15.750Z,5.95
2023-04-10T04:07:43.767Z,6.02
2023-04-10T04:10:11.762Z,5.87
2023-04-10T04:12:39.600Z,5.96
2023-04-10T04:15:08.667Z,6.05
2023-04-10T04:17:36.624Z,6.03
2023-04-10T04:20:07.104Z,6.02
2023-04-10T04:22:35.001Z,5.96
2023-04-10T04:25:03.215Z,5.97
2023-04-10T04:27:31.098Z,6.16
2023-04-10T04:29:59.001Z,6.14
2023-04-10T04:32:26.835Z,6.24
2023-04-10T04:34:54.760Z,6.25
2023-04-10T04:37:24.051Z,6.32
2023-04-10T04:39:52.146Z,6.49
2023-04-10T04:42:19.981Z,6.48
2023-04-10T04:44:47.898Z,6.57
2023-04-10T04:47:15.798Z,6.52
2023-04-10T04:49:43.709Z,6.52
2023-04-10T04:52:11.600Z,6.66
2023-04-10T04:54:40.874Z,6.61
2023-04-10T04:57:08.815Z,6.56
2023-04-10T04:59:38.266Z,6.76
2023-04-10T05:02:06.291Z,6.80
2023-04-10T05:04:34.179Z,6.76
2023-04-10T05:07:02.032Z,6.83
2023-04-10T05:09:29.897Z,6.85
2023-04-10T05:11:59.174Z,6.90
2023-04-10T05:14:27.129Z,7.02
2023-04-10T05:16:55.019Z,7.07
2023-04-10T05:19:23.907Z,7.13
2023-04-10T05:21:51.782Z,7.19
2023-04-10T05:24:19.650Z,7.26
2023-04-10T05:26:48.013Z,7.24
2023-04-10T05:29:17.285Z,7.20
2023-04-10T05:31:45.639Z,7.31
2023-04-10T05:34:13.564Z,7.35
2023-04-10T05:36:41.793Z,7.43
2023-04-10T05:39:09.945Z,7.46
2023-04-10T05:41:37.797Z,7.53
2023-04-10T05:44:05.725Z,7.62
2023-04-10T05:46:35.141Z,7.70
2023-04-10T05:49:03.469Z,7.84
2023-04-10T05:51:32.046Z,7.93
2023-04-10T05:53:59.950Z,7.98
2023-04-10T05:56:27.806Z,8.09
2023-04-10T05:58:55.974Z,8.10
2023-04-10T06:01:24.258Z,8.13
2023-04-10T06:03:53.672Z,8.08
2023-04-10T06:06:22.446Z,8.13
2023-04-10T06:08:50.475Z,8.16
2023-04-10T06:11:18.317Z,8.29
2023-04-10T06:13:47.209Z,8.41
2023-04-10T06:16:16.477Z,8.43
2023-04-10T06:18:44.520Z,8.46
2023-04-10T06:21:13.810Z,8.50
2023-04-10T06:23:42.539Z,8.54
2023-04-10T06:26:10.592Z,8.65
2023-04-10T06:28:38.972Z,8.77
2023-04-10T06:31:08.302Z,8.87
2023-04-10T06:33:37.017Z,8.88
2023-04-10T06:36:06.925Z,8.91
2023-04-10T06:38:37.973Z,8.97
2023-04-10T06:41:06.876Z,9.07
2023-04-10T06:43:36.155Z,9.14
2023-04-10T06:46:04.950Z,9.22
2023-04-10T06:48:33.054Z,9.23
2023-04-10T06:51:01.656Z,9.28
2023-04-10T06:53:29.829Z,9.31
2023-04-10T06:56:02.981Z,9.41
2023-04-10T06:58:36.270Z,9.30
2023-04-10T07:01:04.549Z,9.43
2023-04-10T07:03:33.859Z,9.34
2023-04-10T07:06:03.339Z,9.45
2023-04-10T07:08:31.409Z,9.30
2023-04-10T07:11:00.642Z,9.40
2023-04-10T07:13:28.515Z,9.55
2023-04-10T07:15:56.395Z,9.64
2023-04-10T07:18:24.337Z,9.72
2023-04-10T07:20:52.472Z,9.73
2023-04-10T07:23:20.533Z,9.58
2023-04-10T07:25:48.709Z,9.65
2023-04-10T07:28:17.925Z,9.70
2023-04-10T07:30:46.223Z,9.68
2023-04-10T07:33:14.306Z,9.80
2023-04-10T07:35:42.382Z,9.70
2023-04-10T07:38:10.525Z,9.64
2023-04-10T07:40:38.376Z,9.61
2023-04-10T07:43:06.254Z,9.76
2023-04-10T07:45:35.679Z,9.91
2023-04-10T07:48:03.610Z,10.07
2023-04-10T07:50:31.925Z,10.14
2023-04-10T07:53:03.516Z,10.18
2023-04-10T07:55:31.509Z,10.15
2023-04-10T07:57:59.413Z,10.20
2023-04-10T08:00:27.420Z,10.41
2023-04-10T08:02:56.945Z,10.59
2023-04-10T08:05:25.349Z,10.72
2023-04-10T08:07:53.437Z,10.72
2023-04-10T08:10:21.545Z,10.70
2023-04-10T08:12:49.474Z,10.75
2023-04-10T08:15:18.647Z,10.70
2023-04-10T08:17:46.728Z,10.55
2023-04-10T08:20:16.478Z,10.50
2023-04-10T08:22:44.403Z,10.29
2023-04-10T08:25:12.308Z,10.42
2023-04-10T08:27:40.271Z,10.43
2023-04-10T08:30:09.537Z,10.53
2023-04-10T08:32:37.591Z,10.53
2023-04-10T08:35:06.308Z,10.64
2023-04-10T08:37:35.552Z,10.60
2023-04-10T08:40:03.765Z,10.77
2023-04-10T08:42:34.504Z,10.75
2023-04-10T08:45:05.498Z,10.80
2023-04-10T08:47:38.675Z,10.87
2023-04-10T08:50:09.225Z,11.00
2023-04-10T08:52:44.460Z,11.04
2023-04-10T08:55:14.418Z,11.01
2023-04-10T08:57:50.836Z,10.91
2023-04-10T09:00:28.095Z,10.73
2023-04-10T09:02:58.769Z,11.02
2023-04-10T09:05:28.487Z,11.17
2023-04-10T09:07:57.822Z,11.29
2023-04-10T09:10:25.879Z,11.05
2023-04-10T09:12:55.066Z,11.15
2023-04-10T09:15:24.262Z,11.19
2023-04-10T09:18:03.010Z,11.40
2023-04-10T09:20:33.315Z,11.43
2023-04-10T09:23:02.848Z,11.50
2023-04-10T09:25:35.859Z,11.36
2023-04-10T09:28:05.527Z,11.47
2023-04-10T09:30:39.308Z,11.30
2023-04-10T09:33:23.973Z,11.38
2023-04-10T09:35:52.208Z,11.48
2023-04-10T09:38:22.916Z,11.50
2023-04-10T09:40:52.326Z,11.57
2023-04-10T09:43:23.629Z,11.67
2023-04-10T09:45:53.410Z,11.61
2023-04-10T09:48:23.508Z,11.49
2023-04-10T09:50:51.919Z,11.51
2023-04-10T09:53:22.704Z,11.47
2023-04-10T09:55:51.697Z,11.49
2023-04-10T09:58:20.132Z,11.18
2023-04-10T10:00:49.990Z,11.24
2023-04-10T10:03:21.126Z,11.34
2023-04-10T10:05:50.659Z,11.60
2023-04-10T10:08:19.105Z,11.93
2023-04-10T10:10:51.472Z,12.07
2023-04-10T10:13:26.606Z,12.04
2023-04-10T10:16:01.912Z,11.90
2023-04-10T10:18:38.746Z,12.12
2023-04-10T10:21:09.186Z,12.12
2023-04-10T10:23:38.959Z,11.82
2023-04-10T10:26:08.943Z,11.82
2023-04-10T10:28:37.777Z,11.72
2023-04-10T10:31:06.787Z,11.58
2023-04-10T10:33:37.226Z,11.67
2023-04-10T10:36:06.080Z,11.68
2023-04-10T10:38:35.040Z,12.15
2023-04-10T10:41:12.456Z,12.64
2023-04-10T10:43:51.910Z,12.87
2023-04-10T10:46:25.751Z,12.83
2023-04-10T10:48:59.661Z,13.03
2023-04-10T10:51:46.771Z,13.05
2023-04-10T10:54:31.448Z,13.04
2023-04-10T10:57:01.021Z,12.88
2023-04-10T10:59:59.562Z,12.81
2023-04-10T11:02:27.688Z,12.90
2023-04-10T11:04:55.922Z,12.80
2023-04-10T11:07:43.793Z,13.14
2023-04-10T11:10:11.864Z,13.91
2023-04-10T11:13:16.693Z,14.64
2023-04-10T11:15:44.881Z,15.22
2023-04-10T11:18:12.818Z,15.91
2023-04-10T11:21:10.356Z,15.79
2023-04-10T11:23:41.549Z,15.52
2023-04-10T11:26:09.450Z,14.82
2023-04-10T11:28:41.748Z,14.36
2023-04-10T11:31:18.658Z,13.75
2023-04-10T11:33:47.795Z,13.45
2023-04-10T11:36:17.584Z,12.93
2023-04-10T11:38:56.317Z,12.66
2023-04-10T11:41:28.880Z,12.47
2023-04-10T11:43:58.700Z,12.70
2023-04-10T11:46:26.861Z,13.28
2023-04-10T11:48:56.066Z,13.72
2023-04-10T11:51:24.274Z,13.76
2023-04-10T11:54:06.289Z,13.65
2023-04-10T11:56:34.195Z,13.58
2023-04-10T11:59:07.440Z,13.50
2023-04-10T12:01:35.612Z,13.43
2023-04-10T12:04:03.701Z,13.38
2023-04-10T12:06:32.286Z,13.23
2023-04-10T12:09:00.312Z,13.07
2023-04-10T12:11:29.714Z,12.81
2023-04-10T12:13:58.989Z,12.93
2023-04-10T12:16:29.019Z,12.62
2023-04-10T12:18:57.299Z,12.41
2023-04-10T12:21:26.316Z,11.80
2023-04-10T12:23:54.250Z,11.08
2023-04-10T12:26:22.341Z,10.61
2023-04-10T12:28:55.507Z,10.15
2023-04-10T12:31:33.288Z,9.95
2023-04-10T12:34:02.536Z,9.86
2023-04-10T12:36:32.250Z,9.71
2023-04-10T12:39:01.221Z,9.56
2023-04-10T12:41:31.436Z,9.21
2023-04-10T12:44:09.912Z,8.95
2023-04-10T12:46:39.954Z,8.72
2023-04-10T12:49:12.483Z,8.78
2023-04-10T12:51:47.499Z,8.90
2023-04-10T12:54:31.915Z,9.15
2023-04-10T12:57:00.738Z,9.39
2023-04-10T12:59:29.102Z,9.70
2023-04-10T13:01:58.561Z,10.01
2023-04-10T13:04:27.044Z,10.22
2023-04-10T13:06:55.119Z,10.71
2023-04-10T13:09:22.961Z,11.24
2023-04-10T13:11:52.775Z,11.47
2023-04-10T13:14:20.822Z,12.05
2023-04-10T13:16:48.989Z,12.70
2023-04-10T13:19:18.393Z,13.40
2023-04-10T13:21:46.311Z,13.87
2023-04-10T13:24:16.492Z,14.28
2023-04-10T13:26:44.763Z,14.60
2023-04-10T13:29:12.717Z,15.01
2023-04-10T13:31:40.746Z,15.01
2023-04-10T13:34:08.704Z,15.07
2023-04-10T13:36:38.113Z,14.86
2023-04-10T13:39:06.204Z,14.28
2023-04-10T13:41:34.222Z,14.50
2023-04-10T13:44:02.187Z,14.80
2023-04-10T13:46:30.076Z,15.36
2023-04-10T13:48:58.490Z,15.73
2023-04-10T13:51:27.879Z,16.27
2023-04-10T13:53:57.116Z,16.43
2023-04-10T13:56:24.977Z,16.42
2023-04-10T13:58:52.988Z,16.64
2023-04-10T14:01:21.316Z,16.61
2023-04-10T14:03:49.519Z,16.50
2023-04-10T14:06:17.567Z,16.06
2023-04-10T14:08:45.458Z,15.83
2023-04-10T14:11:14.842Z,15.45
2023-04-10T14:13:42.765Z,15.37
2023-04-10T14:16:11.891Z,15.15
2023-04-10T14:18:39.904Z,15.06
2023-04-10T14:21:08.412Z,14.86
2023-04-10T14:23:36.485Z,14.32
2023-04-10T14:26:06.572Z,13.95
2023-04-10T14:28:36.322Z,13.46
2023-04-10T14:31:06.395Z,13.25
2023-04-10T14:33:35.112Z,12.86
2023-04-10T14:36:03.234Z,12.67
2023-04-10T14:38:31.347Z,12.58
2023-04-10T14:40:59.235Z,12.50
2023-04-10T14:43:27.112Z,12.30
2023-04-10T14:45:56.776Z,12.07
2023-04-10T14:48:24.902Z,11.88
2023-04-10T14:50:52.886Z,11.86
2023-04-10T14:53:21.690Z,11.96
2023-04-10T14:55:49.579Z,12.07
2023-04-10T14:58:17.665Z,12.03
2023-04-10T15:00:45.995Z,11.77
2023-04-10T15:03:15.435Z,11.67
2023-04-10T15:05:43.542Z,11.69
2023-04-10T15:08:11.880Z,11.62
2023-04-10T15:10:39.805Z,11.71
2023-04-10T15:13:07.708Z,11.72
2023-04-10T15:15:35.654Z,11.50
2023-04-10T15:18:03.612Z,11.44
2023-04-10T15:20:33.016Z,11.41
2023-04-10T15:23:02.588Z,11.31
2023-04-10T15:25:31.130Z,11.31
2023-04-10T15:28:01.769Z,11.39
2023-04-10T15:30:30.088Z,11.44
2023-04-10T15:32:58.078Z,11.43
2023-04-10T15:35:26.614Z,11.40
2023-04-10T15:37:55.978Z,11.40
2023-04-10T15:40:23.871Z,11.47
2023-04-10T15:42:52.734Z,11.63
2023-04-10T15:45:20.756Z,11.77
2023-04-10T15:47:49.165Z,12.03
2023-04-10T15:50:17.224Z,12.23
2023-04-10T15:52:45.164Z,12.38
2023-04-10T15:55:14.491Z,12.59
2023-04-10T15:57:42.375Z,12.51
2023-04-10T16:00:11.565Z,12.72
2023-04-10T16:02:39.731Z,12.73
2023-04-10T16:05:09.373Z,12.77
2023-04-10T16:07:40.698Z,12.73
2023-04-10T16:10:09.656Z,12.48
2023-04-10T16:12:39.096Z,12.58
2023-04-10T16:15:08.382Z,12.64
2023-04-10T16:17:36.462Z,12.66
2023-04-10T16:20:07.627Z,12.41
2023-04-10T16:22:36.575Z,12.31
2023-04-10T16:27:38.865Z,12.13
2023-04-10T16:30:08.275Z,11.96
2023-04-10T16:32:36.558Z,11.90
2023-04-10T16:35:04.881Z,11.71
2023-04-10T16:37:32.814Z,11.05
2023-04-10T16:40:00.978Z,10.62
2023-04-10T16:42:29.049Z,10.07
2023-04-10T16:45:02.135Z,9.60
2023-04-10T16:47:30.318Z,9.12
2023-04-10T16:49:58.211Z,8.75
2023-04-10T16:52:26.265Z,8.51
2023-04-10T16:54:57.092Z,8.38
2023-04-10T16:57:27.738Z,8.11
2023-04-10T17:00:00.332Z,7.86
2023-04-10T17:02:29.805Z,7.80
2023-04-10T17:04:57.820Z,7.87
2023-04-10T17:07:26.036Z,7.65
2023-04-10T17:09:55.460Z,7.75
2023-04-10T17:12:23.505Z,7.67
2023-04-10T17:14:52.711Z,7.36
2023-04-10T17:17:22.409Z,7.42
2023-04-10T17:19:50.415Z,7.50
2023-04-10T17:22:19.876Z,7.52
2023-04-10T17:24:49.336Z,7.72
2023-04-10T17:27:17.471Z,7.87
2023-04-10T17:29:45.864Z,8.09
2023-04-10T17:32:14.605Z,8.22
2023-04-10T17:34:44.195Z,8.08
2023-04-10T17:37:14.764Z,8.11
2023-04-10T17:39:42.656Z,8.11
2023-04-10T17:42:10.900Z,8.14
2023-04-10T17:44:39.034Z,8.01
2023-04-10T17:47:06.914Z,7.89
2023-04-10T17:49:34.962Z,7.43
2023-04-10T17:52:04.597Z,7.62
2023-04-10T17:54:32.610Z,7.52
2023-04-10T17:57:00.947Z,7.56
2023-04-10T17:59:31.114Z,7.76
2023-04-10T18:01:59.077Z,7.96
2023-04-10T18:04:27.219Z,8.08
2023-04-10T18:06:55.208Z,8.28
2023-04-10T18:09:24.519Z,8.17
2023-04-10T18:11:52.573Z,8.24
2023-04-10T18:14:20.819Z,8.13
2023-04-10T18:16:50.185Z,8.27
2023-04-10T18:19:18.212Z,8.32
2023-04-10T18:21:46.132Z,8.41
2023-04-10T18:24:14.259Z,8.40
2023-04-10T18:26:45.270Z,8.42
2023-04-10T18:29:31.290Z,8.41
2023-04-10T18:31:59.204Z,8.57
2023-04-10T18:34:27.365Z,8.62
2023-04-10T18:36:55.759Z,8.52
2023-04-10T18:39:23.669Z,8.61
2023-04-10T18:41:53.095Z,8.61
2023-04-10T18:44:21.090Z,8.62
2023-04-10T18:46:57.511Z,8.55
2023-04-10T18:49:32.223Z,8.54
2023-04-10T18:52:00.164Z,8.34
2023-04-10T18:54:28.086Z,8.57
2023-04-10T18:56:57.814Z,8.59
2023-04-10T18:59:25.836Z,8.43
2023-04-10T19:01:53.846Z,8.61
2023-04-10T19:04:21.915Z,8.65
2023-04-10T19:06:49.897Z,8.52
2023-04-10T19:09:17.808Z,8.54
2023-04-10T19:11:47.393Z,8.41
2023-04-10T19:14:16.651Z,8.41
2023-04-10T19:16:44.571Z,8.27
2023-04-10T19:19:12.475Z,8.34
2023-04-10T19:21:40.386Z,8.30
2023-04-10T19:24:08.648Z,8.20
2023-04-10T19:26:37.592Z,8.09
2023-04-10T19:29:05.703Z,7.97
2023-04-10T19:31:35.093Z,7.94
2023-04-10T19:34:09.006Z,7.81
2023-04-10T19:36:37.525Z,7.71
2023-04-10T19:39:06.309Z,7.65
2023-04-10T19:41:34.364Z,7.54
2023-04-10T19:44:02.932Z,7.59
2023-04-10T19:46:30.929Z,7.52
2023-04-10T19:49:00.337Z,7.52
2023-04-10T19:51:28.478Z,7.46
2023-04-10T19:53:58.689Z,7.37
2023-04-10T19:56:28.713Z,7.40
2023-04-10T19:58:56.872Z,7.09
2023-04-10T20:01:25.405Z,6.96
2023-04-10T20:03:53.644Z,6.91
2023-04-10T20:06:24.167Z,6.58
2023-04-10T20:08:52.477Z,6.53
2023-04-10T20:11:20.645Z,6.19
2023-04-10T20:13:49.095Z,6.10
2023-04-10T20:16:17.538Z,6.14
2023-04-10T20:18:45.754Z,6.14
2023-04-10T20:21:13.634Z,6.30
2023-04-10T20:23:42.956Z,6.52
2023-04-10T20:26:12.944Z,6.72
2023-04-10T20:28:41.228Z,6.77
2023-04-10T20:31:11.178Z,6.79
2023-04-10T20:33:39.238Z,7.04
2023-04-10T20:36:08.203Z,7.20
2023-04-10T20:38:36.219Z,7.24
2023-04-10T20:41:05.655Z,7.24
2023-04-10T20:43:33.806Z,7.30
2023-04-10T20:46:04.522Z,7.32
2023-04-10T20:48:32.531Z,7.46
2023-04-10T20:51:00.659Z,7.49
2023-04-10T20:53:29.237Z,7.50
2023-04-10T20:55:57.203Z,7.52
2023-04-10T20:58:26.558Z,7.55
2023-04-10T21:00:54.869Z,7.49
2023-04-10T21:03:22.979Z,7.36
2023-04-10T21:05:53.477Z,7.48
2023-04-10T21:08:22.015Z,7.38
2023-04-10T21:10:49.953Z,7.37
2023-04-10T21:13:17.919Z,7.27
2023-04-10T21:15:49.665Z,7.35
2023-04-10T21:18:17.867Z,7.40
2023-04-10T21:20:46.361Z,7.42
2023-04-10T21:23:14.358Z,7.13
2023-04-10T21:25:42.240Z,7.04
2023-04-10T21:28:10.130Z,7.00
2023-04-10T21:30:38.029Z,6.91
2023-04-10T21:33:07.451Z,6.70
2023-04-10T21:35:35.448Z,6.55
2023-04-10T21:38:03.913Z,6.43
2023-04-10T21:40:34.382Z,6.37
2023-04-10T21:43:02.614Z,6.35
2023-04-10T21:45:30.990Z,6.33
2023-04-10T21:48:00.461Z,6.27
2023-04-10T21:50:29.825Z,6.25
2023-04-10T21:52:57.949Z,6.19
2023-04-10T21:55:25.794Z,6.13
2023-04-10T21:57:53.713Z,6.08
2023-04-10T22:00:23.120Z,6.09
2023-04-10T22:02:51.845Z,6.04
2023-04-10T22:05:20.008Z,6.03
2023-04-10T22:07:49.273Z,6.00
2023-04-10T22:10:17.408Z,6.05
2023-04-10T22:12:48.407Z,6.15
2023-04-10T22:15:17.305Z,6.03
2023-04-10T22:17:45.380Z,6.02
2023-04-10T22:20:13.667Z,5.98
2023-04-10T22:22:41.562Z,5.93
2023-04-10T22:25:10.952Z,5.96
2023-04-10T22:27:38.877Z,5.99
2023-04-10T22:30:09.851Z,6.04
2023-04-10T22:32:38.309Z,6.00
2023-04-10T22:35:07.663Z,6.10
2023-04-10T22:37:35.564Z,6.10
2023-04-10T22:40:03.552Z,6.17
2023-04-10T22:42:32.981Z,6.19
2023-04-10T22:45:00.872Z,6.16
2023-04-10T22:47:31.479Z,6.16
2023-04-10T22:49:59.487Z,6.21
2023-04-10T22:52:27.404Z,6.20
2023-04-10T22:54:55.254Z,6.20
2023-04-10T22:57:23.435Z,6.17
2023-04-10T22:59:52.710Z,6.26
2023-04-10T23:02:20.746Z,6.28
2023-04-10T23:04:48.733Z,6.28
2023-04-10T23:07:16.694Z,6.29
2023-04-10T23:09:44.632Z,6.28
2023-04-10T23:12:12.516Z,6.29
2023-04-10T23:14:40.401Z,6.27
2023-04-10T23:17:09.604Z,6.31
2023-04-10T23:19:37.462Z,6.34
2023-04-10T23:22:05.482Z,6.34
2023-04-10T23:24:33.562Z,6.33
2023-04-10T23:27:01.472Z,6.31
2023-04-10T23:29:29.476Z,6.37
2023-04-10T23:31:57.416Z,6.26
2023-04-10T23:34:27.579Z,6.21
2023-04-10T23:36:55.835Z,6.26
2023-04-10T23:39:23.749Z,6.17
2023-04-10T23:41:51.814Z,6.11
2023-04-10T23:44:19.695Z,6.11
2023-04-10T23:46:50.255Z,6.08
2023-04-10T23:49:18.395Z,6.11
2023-04-10T23:51:47.656Z,6.13
2023-04-10T23:54:15.691Z,6.07
2023-04-10T23:56:43.578Z,6.09
2023-04-10T23:59:11.526Z,6.09
